Time;durP1;ratioP1;P1;durP2;ratioP2;P2;SDS_P1;SDS_P2;PMS_P1;PMS_P2;Temp;Humidity;BMP_temperature;BMP_pressure;BME280_temperature;BME280_humidity;BME280_pressure;Samples;Min_cycle;Max_cycle;Signal;HPM_P1;HPM_P2
2021/08/30 00:01:13;;;;;;;3.28;2.28;;;13.60;95.80;;;;;;4931703;29;20047;-69
2021/08/30 00:03:39;;;;;;;3.67;2.50;;;13.60;95.90;;;;;;4931681;29;20028;-69
2021/08/30 00:06:05;;;;;;;4.25;2.95;;;13.60;95.80;;;;;;4933956;29;20079;-69
2021/08/30 00:08:30;;;;;;;3.13;2.45;;;13.60;95.70;;;;;;4931032;29;20024;-69
2021/08/30 00:10:56;;;;;;;3.50;2.50;;;13.60;95.90;;;;;;4931000;29;20086;-69
2021/08/30 00:13:22;;;;;;;5.28;2.50;;;13.60;95.80;;;;;;4933373;29;20043;-69
2021/08/30 00:15:48;;;;;;;3.85;2.50;;;13.60;95.80;;;;;;4932966;29;20042;-69
2021/08/30 00:18:13;;;;;;;2.78;2.15;;;13.60;95.80;;;;;;4939781;29;20035;-68
2021/08/30 00:20:39;;;;;;;2.55;2.13;;;13.60;95.70;;;;;;4931626;29;20028;-70
2021/08/30 00:23:05;;;;;;;2.78;2.33;;;13.60;95.90;;;;;;4929842;29;20469;-69
2021/08/30 00:25:31;;;;;;;2.40;2.20;;;13.50;95.90;;;;;;4930734;29;20074;-69
2021/08/30 00:27:56;;;;;;;3.30;2.33;;;13.60;96.00;;;;;;4931846;29;20039;-69
2021/08/30 00:30:22;;;;;;;2.65;2.25;;;13.50;96.00;;;;;;4933869;28;20034;-70
2021/08/30 00:32:47;;;;;;;5.65;2.42;;;13.50;96.00;;;;;;4933294;29;20111;-69
2021/08/30 00:35:13;;;;;;;2.97;2.60;;;13.60;95.90;;;;;;4932341;29;20039;-70
2021/08/30 00:37:39;;;;;;;3.65;2.30;;;13.50;96.00;;;;;;4930339;29;20035;-69
2021/08/30 00:40:06;;;;;;;3.28;2.50;;;13.60;96.00;;;;;;4930833;29;20038;-69
2021/08/30 00:42:32;;;;;;;3.40;2.55;;;13.50;96.00;;;;;;4935673;28;20019;-69
2021/08/30 00:45:00;;;;;;;2.78;1.95;;;13.50;96.10;;;;;;4932834;29;20024;-69
2021/08/30 00:47:26;;;;;;;3.50;2.42;;;13.50;96.20;;;;;;4931382;28;20019;-69
2021/08/30 00:49:53;;;;;;;2.25;2.05;;;13.50;96.20;;;;;;4934044;29;20484;-69
2021/08/30 00:52:19;;;;;;;2.10;1.90;;;13.50;96.10;;;;;;4932746;29;20039;-69
2021/08/30 00:54:45;;;;;;;3.05;2.13;;;13.60;96.10;;;;;;4933801;28;20042;-69
2021/08/30 00:57:11;;;;;;;2.70;2.28;;;13.60;96.20;;;;;;4933804;29;20031;-69
2021/08/30 00:59:41;;;;;;;2.28;2.08;;;13.50;96.00;;;;;;4935102;28;20031;-69
2021/08/30 01:02:07;;;;;;;3.00;2.55;;;13.50;95.90;;;;;;4930567;28;20164;-69
2021/08/30 01:04:33;;;;;;;3.75;2.40;;;13.60;96.00;;;;;;4932935;29;20038;-69
2021/08/30 01:07:03;;;;;;;3.95;2.35;;;13.50;96.10;;;;;;4933163;29;20107;-69
2021/08/30 01:09:51;;;;;;;3.08;2.50;;;13.50;96.20;;;;;;4931892;29;20486;-69
2021/08/30 01:12:24;;;;;;;3.20;2.28;;;13.50;96.20;;;;;;4932583;29;20024;-69
2021/08/30 01:14:55;;;;;;;3.17;2.47;;;13.50;96.30;;;;;;4931008;29;20079;-69
2021/08/30 01:17:21;;;;;;;2.50;2.00;;;13.60;96.20;;;;;;4932747;29;20030;-69
2021/08/30 01:20:01;;;;;;;3.05;2.72;;;13.60;96.20;;;;;;4931352;29;20031;-69
2021/08/30 01:22:28;;;;;;;2.85;2.55;;;13.60;96.10;;;;;;4931777;29;20027;-69
2021/08/30 01:24:55;;;;;;;6.07;2.72;;;13.60;96.20;;;;;;4933917;29;20124;-69
2021/08/30 01:27:22;;;;;;;3.43;2.13;;;13.50;96.20;;;;;;4933583;29;20046;-67
2021/08/30 01:30:10;;;;;;;2.45;2.25;;;13.60;96.20;;;;;;4934374;28;20032;-68
2021/08/30 01:32:46;;;;;;;3.17;2.25;;;13.50;96.00;;;;;;4928072;29;20036;-68
2021/08/30 01:35:17;;;;;;;3.15;2.58;;;13.50;96.10;;;;;;4934895;29;20115;-69
2021/08/30 01:37:45;;;;;;;3.38;2.90;;;13.50;96.20;;;;;;4933155;29;20028;-69
2021/08/30 01:40:14;;;;;;;4.53;2.78;;;13.50;96.10;;;;;;4930906;29;20307;-69
2021/08/30 01:42:40;;;;;;;;;;;13.50;96.10;;;;;;4926347;29;20052;-68
2021/08/30 01:45:10;;;;;;;9.02;2.38;;;13.50;96.10;;;;;;4929667;29;20009;-68
2021/08/30 01:47:37;;;;;;;3.03;2.70;;;13.50;96.20;;;;;;4960946;28;20083;-68
2021/08/30 01:50:05;;;;;;;5.28;2.95;;;13.50;96.10;;;;;;4929584;29;20035;-68
2021/08/30 01:52:56;;;;;;;4.75;2.90;;;13.50;96.10;;;;;;4928176;29;20501;-69
2021/08/30 01:55:47;;;;;;;4.00;2.80;;;13.50;96.50;;;;;;4958480;28;20082;-69
2021/08/30 02:03:18;;;;;;;3.55;2.38;;;13.50;96.10;;;;;;4933193;29;20031;-68
2021/08/30 02:05:47;;;;;;;3.45;2.40;;;13.40;96.10;;;;;;4930722;29;20103;-68
2021/08/30 02:08:15;;;;;;;2.95;2.55;;;13.50;96.00;;;;;;4931459;29;20024;-69
2021/08/30 02:10:47;;;;;;;3.03;2.17;;;13.40;96.10;;;;;;4930084;29;20027;-69
2021/08/30 02:13:14;;;;;;;4.47;2.90;;;13.40;96.20;;;;;;4929634;29;20499;-68
2021/08/30 02:15:41;;;;;;;4.30;2.58;;;13.40;96.00;;;;;;4929507;29;20039;-69
2021/08/30 02:18:27;;;;;;;3.35;2.45;;;13.40;96.20;;;;;;4932071;29;20032;-69
2021/08/30 02:21:00;;;;;;;2.95;2.42;;;13.40;96.10;;;;;;4929560;29;20087;-69
2021/08/30 02:23:31;;;;;;;3.83;2.40;;;13.40;96.10;;;;;;4932560;29;20485;-69
2021/08/30 02:26:06;;;;;;;3.40;2.20;;;13.50;96.00;;;;;;4930195;29;20039;-68
2021/08/30 02:28:32;;;;;;;3.88;2.38;;;13.50;96.20;;;;;;4932895;29;20504;-69
2021/08/30 02:31:00;;;;;;;4.18;2.45;;;13.40;96.20;;;;;;4927598;29;20055;-68
2021/08/30 02:33:25;;;;;;;3.40;2.30;;;13.40;96.20;;;;;;4925216;29;20031;-69
2021/08/30 02:35:52;;;;;;;3.33;2.53;;;13.40;96.00;;;;;;4930578;29;20054;-69
2021/08/30 02:38:17;;;;;;;3.38;2.75;;;13.40;96.10;;;;;;4932601;29;20050;-69
2021/08/30 02:40:43;;;;;;;5.55;2.30;;;13.40;96.10;;;;;;4935462;28;20039;-69
2021/08/30 02:43:10;;;;;;;3.05;2.40;;;13.40;96.10;;;;;;4934000;29;20032;-69
2021/08/30 02:45:37;;;;;;;3.20;2.50;;;13.40;96.10;;;;;;4931182;29;20028;-69
2021/08/30 02:48:04;;;;;;;4.10;2.85;;;13.40;96.10;;;;;;4930698;28;20024;-69
2021/08/30 02:50:31;;;;;;;3.80;2.58;;;13.40;96.10;;;;;;4931900;28;20036;-69
2021/08/30 02:52:59;;;;;;;3.70;2.80;;;13.50;96.20;;;;;;4939489;28;20050;-69
2021/08/30 02:55:25;;;;;;;3.75;2.65;;;13.50;96.20;;;;;;4936703;29;20360;-69
2021/08/30 02:57:51;;;;;;;3.45;2.60;;;13.50;96.20;;;;;;4936967;29;20039;-69
2021/08/30 03:00:18;;;;;;;4.22;2.65;;;13.50;96.20;;;;;;4933407;29;20040;-69
2021/08/30 03:02:46;;;;;;;2.78;2.35;;;13.50;96.20;;;;;;4928167;29;20083;-68
2021/08/30 03:05:13;;;;;;;2.47;2.28;;;13.50;96.20;;;;;;4935657;29;20032;-69
2021/08/30 03:07:40;;;;;;;2.55;2.30;;;13.50;96.20;;;;;;4936566;29;20028;-69
2021/08/30 03:10:06;;;;;;;4.22;2.70;;;13.50;96.20;;;;;;4935396;29;20028;-69
2021/08/30 03:12:43;;;;;;;5.53;2.90;;;13.50;96.20;;;;;;4929732;29;20023;-69
2021/08/30 03:15:16;;;;;;;3.05;2.40;;;13.50;96.20;;;;;;4933349;29;20019;-69
2021/08/30 03:17:44;;;;;;;5.30;2.17;;;13.40;96.30;;;;;;4929537;29;20027;-69
2021/08/30 03:20:11;;;;;;;3.55;2.40;;;13.50;96.20;;;;;;4933060;29;20024;-69
2021/08/30 03:22:39;;;;;;;2.57;2.10;;;13.40;96.30;;;;;;4967476;28;20521;-69
2021/08/30 03:25:06;;;;;;;3.15;2.40;;;13.40;96.40;;;;;;4933183;28;20027;-68
2021/08/30 03:27:32;;;;;;;3.88;2.42;;;13.40;96.30;;;;;;4935279;28;20035;-69
2021/08/30 03:29:59;;;;;;;2.83;2.13;;;13.30;96.50;;;;;;4933969;29;20031;-69
2021/08/30 03:32:25;;;;;;;2.78;2.30;;;13.30;96.50;;;;;;4929102;29;20072;-69
2021/08/30 03:34:52;;;;;;;2.75;2.20;;;13.40;96.50;;;;;;4934810;29;20039;-69
2021/08/30 03:37:18;;;;;;;3.08;2.60;;;13.30;96.40;;;;;;4930727;29;20054;-70
2021/08/30 03:39:45;;;;;;;4.75;2.60;;;13.40;96.50;;;;;;4931075;29;20092;-69
2021/08/30 03:42:12;;;;;;;2.80;2.58;;;13.40;96.50;;;;;;4931785;29;20126;-69
2021/08/30 03:44:38;;;;;;;2.75;2.53;;;13.40;96.50;;;;;;4933662;29;20111;-68
2021/08/30 03:47:05;;;;;;;2.95;2.58;;;13.30;96.90;;;;;;4931340;29;20032;-69
2021/08/30 03:49:32;;;;;;;3.60;2.28;;;13.40;96.50;;;;;;4930239;29;20381;-69
2021/08/30 03:51:59;;;;;;;3.42;2.50;;;13.40;96.50;;;;;;4934969;29;20016;-68
2021/08/30 03:54:26;;;;;;;3.65;2.42;;;13.40;96.50;;;;;;4933399;29;20085;-69
2021/08/30 03:56:53;;;;;;;3.50;2.20;;;13.40;96.40;;;;;;4946023;28;20042;-69
2021/08/30 03:59:20;;;;;;;3.55;2.17;;;13.40;96.50;;;;;;4930406;29;20215;-68
2021/08/30 04:01:48;;;;;;;2.28;1.98;;;13.40;96.40;;;;;;4929794;28;20032;-68
2021/08/30 04:04:19;;;;;;;3.20;1.83;;;13.30;96.50;;;;;;4929652;29;20067;-68
2021/08/30 04:06:45;;;;;;;3.83;2.05;;;13.40;96.50;;;;;;4930240;29;20027;-68
2021/08/30 04:09:15;;;;;;;2.72;1.75;;;13.30;96.60;;;;;;4931622;29;20483;-68
2021/08/30 04:11:43;;;;;;;2.55;2.03;;;13.30;96.50;;;;;;4934771;29;20027;-69
2021/08/30 04:14:11;;;;;;;3.50;2.20;;;13.40;96.70;;;;;;4931970;29;20034;-68
2021/08/30 04:16:36;;;;;;;3.03;1.90;;;13.30;96.60;;;;;;4933863;29;20032;-68
2021/08/30 04:19:02;;;;;;;2.50;1.90;;;13.30;96.50;;;;;;4932529;28;20484;-69
2021/08/30 04:21:28;;;;;;;2.75;1.90;;;13.30;96.60;;;;;;4933653;29;20035;-69
2021/08/30 04:23:53;;;;;;;3.63;2.15;;;13.30;96.70;;;;;;4930312;29;20036;-68
2021/08/30 04:26:19;;;;;;;2.72;1.92;;;13.30;96.60;;;;;;4933815;29;20030;-68
2021/08/30 04:28:45;;;;;;;2.15;1.95;;;13.30;96.60;;;;;;4934223;29;20015;-69
2021/08/30 04:31:10;;;;;;;3.50;2.10;;;13.30;96.70;;;;;;4933143;29;20048;-68
2021/08/30 04:33:36;;;;;;;3.10;2.33;;;13.30;96.60;;;;;;4931853;29;20032;-68
2021/08/30 04:36:02;;;;;;;3.20;1.80;;;13.30;96.70;;;;;;4932864;29;20035;-69
2021/08/30 04:38:28;;;;;;;2.63;1.92;;;13.30;96.80;;;;;;4929135;29;20048;-69
2021/08/30 04:40:54;;;;;;;3.10;2.05;;;13.30;96.80;;;;;;4934903;29;20046;-68
2021/08/30 04:43:19;;;;;;;3.22;2.40;;;13.30;96.70;;;;;;4933095;29;20031;-68
2021/08/30 04:45:45;;;;;;;2.92;1.83;;;13.30;96.70;;;;;;4934384;28;20016;-68
2021/08/30 04:48:11;;;;;;;2.00;1.70;;;13.30;96.70;;;;;;4933978;29;20074;-68
2021/08/30 04:50:37;;;;;;;2.40;2.03;;;13.30;96.60;;;;;;4933043;28;20035;-68
2021/08/30 04:53:03;;;;;;;2.42;2.05;;;13.30;96.70;;;;;;4932734;29;20024;-68
2021/08/30 04:55:29;;;;;;;2.38;1.90;;;13.30;96.80;;;;;;4935986;29;20083;-68
2021/08/30 04:57:55;;;;;;;4.80;2.15;;;13.20;96.80;;;;;;4934410;29;20032;-68
2021/08/30 05:00:21;;;;;;;2.25;1.70;;;13.20;97.00;;;;;;4933878;28;20038;-68
2021/08/30 05:02:47;;;;;;;1.92;1.70;;;13.20;97.10;;;;;;4930702;29;20039;-68
2021/08/30 05:05:12;;;;;;;3.03;1.58;;;13.20;97.00;;;;;;4932793;29;20023;-68
2021/08/30 05:07:38;;;;;;;1.70;1.60;;;13.20;97.10;;;;;;4933647;29;20066;-68
2021/08/30 05:10:04;;;;;;;2.33;1.80;;;13.20;97.00;;;;;;4931510;28;20086;-68
2021/08/30 05:12:30;;;;;;;2.45;1.77;;;13.20;96.80;;;;;;4934307;28;20485;-68
2021/08/30 05:14:56;;;;;;;1.55;1.45;;;13.20;96.80;;;;;;4931022;29;20031;-68
2021/08/30 05:17:24;;;;;;;2.08;1.73;;;13.20;96.90;;;;;;4960739;28;20701;-68
2021/08/30 05:19:50;;;;;;;1.77;1.50;;;13.20;97.10;;;;;;4931333;29;20027;-69
2021/08/30 05:22:16;;;;;;;1.60;1.50;;;13.20;96.90;;;;;;4930015;29;20765;-68
2021/08/30 05:24:43;;;;;;;4.60;2.08;;;13.20;97.00;;;;;;4928669;29;20472;-68
2021/08/30 05:27:09;;;;;;;1.67;1.58;;;13.20;96.90;;;;;;4933225;29;20678;-68
2021/08/30 05:29:35;;;;;;;1.95;1.80;;;13.20;97.00;;;;;;4932629;29;20039;-69
2021/08/30 05:32:00;;;;;;;2.45;1.30;;;13.20;97.20;;;;;;4930003;28;20044;-68
2021/08/30 05:34:26;;;;;;;1.45;1.23;;;13.20;97.10;;;;;;4931879;29;20477;-68
2021/08/30 05:36:52;;;;;;;1.92;1.40;;;13.30;97.10;;;;;;4934361;29;20028;-68
2021/08/30 05:39:17;;;;;;;4.32;1.20;;;13.20;97.10;;;;;;4931156;29;20122;-68
2021/08/30 05:41:43;;;;;;;1.20;1.10;;;13.20;97.10;;;;;;4925602;29;20039;-69
2021/08/30 05:44:09;;;;;;;1.42;1.27;;;13.20;97.00;;;;;;4929197;29;20043;-68
2021/08/30 05:46:35;;;;;;;1.30;1.20;;;13.30;97.30;;;;;;4925486;29;20038;-68
2021/08/30 05:49:00;;;;;;;1.40;1.30;;;13.20;97.30;;;;;;4932028;29;20032;-68
2021/08/30 05:51:26;;;;;;;0.88;0.85;;;13.30;97.30;;;;;;4932867;29;20035;-68
2021/08/30 05:53:51;;;;;;;2.00;1.15;;;13.20;97.20;;;;;;4929567;28;20429;-69
2021/08/30 05:56:17;;;;;;;1.23;1.13;;;13.30;97.30;;;;;;4929636;29;20044;-69
2021/08/30 05:58:43;;;;;;;1.40;1.30;;;13.30;97.30;;;;;;4929914;28;20028;-68
2021/08/30 06:01:09;;;;;;;1.15;1.08;;;13.30;97.40;;;;;;4927945;28;20039;-68
2021/08/30 06:03:35;;;;;;;2.78;1.30;;;13.30;97.40;;;;;;4933558;29;20107;-68
2021/08/30 06:06:00;;;;;;;1.30;1.20;;;13.30;97.40;;;;;;4932731;28;20034;-68
2021/08/30 06:08:27;;;;;;;1.02;1.02;;;13.30;97.40;;;;;;4925736;29;20105;-69
2021/08/30 06:10:55;;;;;;;1.30;1.20;;;13.30;97.50;;;;;;4931486;28;20028;-68
2021/08/30 06:13:21;;;;;;;2.15;1.38;;;13.30;97.50;;;;;;4933600;28;20032;-68
2021/08/30 06:15:47;;;;;;;1.92;1.42;;;13.40;97.60;;;;;;4927324;29;20040;-68
2021/08/30 06:18:13;;;;;;;2.40;1.50;;;13.40;97.50;;;;;;4925382;29;20027;-68
2021/08/30 06:20:38;;;;;;;2.05;1.63;;;13.40;97.50;;;;;;4931349;29;20032;-68
2021/08/30 06:23:04;;;;;;;1.60;1.50;;;13.40;97.60;;;;;;4931756;29;20043;-68
2021/08/30 06:25:30;;;;;;;2.35;1.90;;;13.40;97.60;;;;;;4928833;29;20023;-68
2021/08/30 06:27:59;;;;;;;2.10;1.83;;;13.40;97.70;;;;;;4934088;29;20019;-68
2021/08/30 06:30:25;;;;;;;2.33;1.80;;;13.40;97.70;;;;;;4933732;29;20058;-68
2021/08/30 06:32:50;;;;;;;1.67;1.52;;;13.40;97.60;;;;;;4934731;29;20028;-69
2021/08/30 06:35:16;;;;;;;3.28;2.20;;;13.50;97.70;;;;;;4934297;29;20028;-69
2021/08/30 06:37:42;;;;;;;2.40;1.60;;;13.40;97.70;;;;;;4934977;29;20032;-68
2021/08/30 06:40:09;;;;;;;0.40;0.40;;;13.50;97.80;;;;;;4934606;29;20058;-68
2021/08/30 06:42:35;;;;;;;1.40;0.50;;;13.40;95.70;;;;;;4936334;29;20031;-69
2021/08/30 06:45:01;;;;;;;0.52;0.52;;;13.30;95.70;;;;;;4935898;29;20063;-68
2021/08/30 06:47:27;;;;;;;0.40;0.40;;;13.40;96.10;;;;;;4936100;29;20035;-69
2021/08/30 06:49:53;;;;;;;0.40;0.40;;;13.30;96.10;;;;;;4933678;29;20076;-69
2021/08/30 06:52:18;;;;;;;0.38;0.32;;;13.30;96.00;;;;;;4938478;29;20031;-68
2021/08/30 06:54:44;;;;;;;0.50;0.40;;;13.30;96.30;;;;;;4935389;29;20115;-68
2021/08/30 06:57:09;;;;;;;0.38;0.38;;;13.30;96.30;;;;;;4939288;29;20051;-68
2021/08/30 06:59:35;;;;;;;0.40;0.40;;;13.10;96.10;;;;;;4935273;29;20503;-68
2021/08/30 07:02:01;;;;;;;0.40;0.40;;;13.20;96.40;;;;;;4933172;28;20043;-69
2021/08/30 07:04:27;;;;;;;0.40;0.32;;;13.20;96.60;;;;;;4936501;29;20027;-68
2021/08/30 07:06:52;;;;;;;0.40;0.40;;;13.20;96.40;;;;;;4936218;29;20419;-69
2021/08/30 07:09:18;;;;;;;0.30;0.30;;;13.20;96.60;;;;;;4936017;29;20024;-68
2021/08/30 07:11:43;;;;;;;0.55;0.50;;;13.20;96.70;;;;;;4932608;29;20024;-68
2021/08/30 07:14:09;;;;;;;0.22;0.22;;;13.30;96.60;;;;;;4935598;29;20441;-68
2021/08/30 07:16:35;;;;;;;1.45;0.40;;;13.30;96.50;;;;;;4934064;29;20027;-69
2021/08/30 07:19:01;;;;;;;1.23;0.30;;;13.30;96.30;;;;;;4932133;29;20048;-68
2021/08/30 07:21:28;;;;;;;0.32;0.32;;;13.30;96.20;;;;;;4935423;29;20119;-68
2021/08/30 07:23:55;;;;;;;1.85;0.50;;;13.30;96.10;;;;;;4934494;29;20062;-68
2021/08/30 07:26:21;;;;;;;1.75;0.50;;;13.20;96.20;;;;;;4936333;28;20028;-68
2021/08/30 07:28:47;;;;;;;0.45;0.30;;;13.30;96.20;;;;;;4935461;28;20464;-69
2021/08/30 07:31:14;;;;;;;0.20;0.20;;;13.30;96.20;;;;;;4934214;28;20032;-68
2021/08/30 07:33:40;;;;;;;0.20;0.20;;;13.40;96.30;;;;;;4935102;29;20028;-68
2021/08/30 07:36:06;;;;;;;0.40;0.40;;;13.40;96.40;;;;;;4935091;29;20040;-69
2021/08/30 07:38:32;;;;;;;1.10;0.40;;;13.40;96.40;;;;;;4936206;29;20047;-69
2021/08/30 07:40:57;;;;;;;0.28;0.28;;;13.40;96.40;;;;;;4935355;29;20027;-69
2021/08/30 07:43:23;;;;;;;0.20;0.20;;;13.50;96.20;;;;;;4934774;29;20500;-68
2021/08/30 07:45:49;;;;;;;1.00;0.20;;;13.50;96.00;;;;;;4930169;29;20038;-69
2021/08/30 07:48:17;;;;;;;1.35;0.52;;;13.50;95.80;;;;;;4936393;29;20035;-68
2021/08/30 07:50:43;;;;;;;0.30;0.30;;;13.40;95.70;;;;;;4933982;29;20031;-69
2021/08/30 07:53:09;;;;;;;0.65;0.50;;;13.50;95.60;;;;;;4934363;28;20042;-69
2021/08/30 07:55:36;;;;;;;0.30;0.22;;;13.50;95.60;;;;;;4933802;29;20040;-68
2021/08/30 07:58:04;;;;;;;0.30;0.30;;;13.50;95.80;;;;;;4935946;29;20094;-69
2021/08/30 08:00:29;;;;;;;0.47;0.32;;;13.50;95.50;;;;;;4934281;28;20047;-69
2021/08/30 08:02:55;;;;;;;1.48;1.27;;;13.40;95.20;;;;;;4934245;29;20027;-69
2021/08/30 08:05:21;;;;;;;0.30;0.30;;;13.40;95.40;;;;;;4934386;28;20457;-69
2021/08/30 08:07:46;;;;;;;0.60;0.20;;;13.40;95.50;;;;;;4934004;29;20457;-69
2021/08/30 08:10:12;;;;;;;0.30;0.28;;;13.40;95.50;;;;;;4934676;29;20035;-69
2021/08/30 08:12:38;;;;;;;0.28;0.28;;;13.50;95.80;;;;;;4934579;29;20055;-68
2021/08/30 08:15:05;;;;;;;0.28;0.28;;;13.40;95.80;;;;;;4933242;28;20027;-68
2021/08/30 08:17:30;;;;;;;0.50;0.50;;;13.50;95.90;;;;;;4935401;29;20031;-68
2021/08/30 08:19:56;;;;;;;0.85;0.50;;;13.50;95.90;;;;;;4932443;29;20028;-68
2021/08/30 08:22:22;;;;;;;0.20;0.20;;;13.60;95.80;;;;;;4935181;29;20040;-68
2021/08/30 08:24:48;;;;;;;2.08;0.40;;;13.70;95.60;;;;;;4932891;29;20038;-69
2021/08/30 08:27:14;;;;;;;0.43;0.40;;;13.70;95.50;;;;;;4935040;28;20477;-68
2021/08/30 08:29:39;;;;;;;0.47;0.47;;;13.80;95.10;;;;;;4935297;29;20030;-68
2021/08/30 08:32:05;;;;;;;0.60;0.60;;;13.80;95.80;;;;;;4933954;28;20048;-68
2021/08/30 08:34:31;;;;;;;0.40;0.40;;;13.90;95.50;;;;;;4932931;29;20088;-68
2021/08/30 08:37:06;;;;;;;0.40;0.40;;;14.00;95.40;;;;;;4934092;29;20063;-69
2021/08/30 08:39:33;;;;;;;0.38;0.38;;;14.00;95.10;;;;;;4933226;29;20051;-68
2021/08/30 08:41:59;;;;;;;0.60;0.60;;;14.10;95.10;;;;;;4933241;28;20035;-68
2021/08/30 08:44:24;;;;;;;0.70;0.60;;;14.00;93.90;;;;;;4931655;29;20039;-68
2021/08/30 08:46:51;;;;;;;0.52;0.38;;;14.10;94.20;;;;;;4934951;29;20024;-68
2021/08/30 08:49:19;;;;;;;0.63;0.63;;;14.00;93.80;;;;;;4934171;29;20031;-68
2021/08/30 08:51:44;;;;;;;;;;;14.00;94.30;;;;;;4932836;29;20441;-68
2021/08/30 08:54:10;;;;;;;0.40;0.40;;;14.00;94.50;;;;;;4934229;29;19918;-68
2021/08/30 08:56:36;;;;;;;0.45;0.45;;;14.00;94.60;;;;;;4934189;29;20056;-68
2021/08/30 08:59:02;;;;;;;0.50;0.50;;;14.00;94.70;;;;;;4932602;29;20126;-68
2021/08/30 09:01:30;;;;;;;1.65;0.80;;;13.90;94.60;;;;;;4933258;28;20044;-68
2021/08/30 09:03:56;;;;;;;1.25;0.50;;;13.90;94.80;;;;;;4933750;29;20421;-68
2021/08/30 09:06:30;;;;;;;1.48;0.70;;;13.90;94.30;;;;;;4933455;29;20027;-68
2021/08/30 09:09:10;;;;;;;0.50;0.50;;;13.90;94.70;;;;;;4931263;29;20027;-68
2021/08/30 09:11:45;;;;;;;0.40;0.40;;;14.00;94.30;;;;;;4952297;28;20070;-68
2021/08/30 09:14:31;;;;;;;0.60;0.60;;;14.00;94.50;;;;;;4933886;29;20036;-68
2021/08/30 09:17:05;;;;;;;0.47;0.47;;;14.00;94.50;;;;;;4933320;29;20058;-68
2021/08/30 09:19:33;;;;;;;0.70;0.70;;;14.10;94.30;;;;;;4933097;29;20102;-69
2021/08/30 09:21:59;;;;;;;0.68;0.68;;;14.00;94.30;;;;;;4934380;29;20488;-69
2021/08/30 09:24:26;;;;;;;0.52;0.52;;;14.10;94.60;;;;;;4961615;28;20551;-69
2021/08/30 09:26:57;;;;;;;0.98;0.70;;;14.10;94.30;;;;;;4932986;29;20036;-69
2021/08/30 09:29:38;;;;;;;0.82;0.60;;;14.10;93.40;;;;;;4930746;28;20039;-69
2021/08/30 09:32:14;;;;;;;0.70;0.70;;;14.10;93.70;;;;;;4932501;28;20541;-69
2021/08/30 09:34:50;;;;;;;0.65;0.65;;;14.10;94.10;;;;;;4945763;28;20521;-68
2021/08/30 09:37:19;;;;;;;0.75;0.60;;;14.10;94.00;;;;;;4932134;29;20050;-69
2021/08/30 09:39:59;;;;;;;0.60;0.60;;;14.20;94.10;;;;;;4928809;29;20053;-69
2021/08/30 09:42:27;;;;;;;1.55;0.70;;;14.30;94.60;;;;;;4931762;29;20034;-68
2021/08/30 09:44:56;;;;;;;1.73;1.17;;;14.40;94.00;;;;;;4931492;29;20027;-68
2021/08/30 09:47:22;;;;;;;0.88;0.80;;;14.50;94.90;;;;;;4931117;29;20425;-68
2021/08/30 09:49:52;;;;;;;0.75;0.70;;;14.70;94.50;;;;;;4930430;29;20039;-69
2021/08/30 09:52:22;;;;;;;0.80;0.80;;;14.70;94.10;;;;;;4932370;29;20031;-68
2021/08/30 09:54:49;;;;;;;0.57;0.57;;;14.70;92.90;;;;;;4932429;29;20039;-69
2021/08/30 09:57:15;;;;;;;0.60;0.57;;;14.80;93.10;;;;;;4933886;29;20051;-68
2021/08/30 09:59:45;;;;;;;2.67;0.40;;;14.70;92.50;;;;;;4933437;29;20063;-68
2021/08/30 10:02:17;;;;;;;0.55;0.55;;;14.70;92.60;;;;;;4931657;29;20046;-68
2021/08/30 10:04:44;;;;;;;0.90;0.90;;;14.70;92.80;;;;;;4935071;28;20036;-68
2021/08/30 10:07:11;;;;;;;0.60;0.60;;;14.70;93.30;;;;;;4935155;29;20043;-68
2021/08/30 10:09:41;;;;;;;0.50;0.50;;;14.70;93.40;;;;;;4928475;29;20035;-68
2021/08/30 10:12:07;;;;;;;0.50;0.50;;;14.70;93.40;;;;;;4937660;29;20515;-69
2021/08/30 10:14:34;;;;;;;0.60;0.60;;;14.70;93.40;;;;;;4935952;29;20481;-68
2021/08/30 10:17:03;;;;;;;0.70;0.70;;;14.70;93.10;;;;;;4936025;29;20032;-69
2021/08/30 10:19:32;;;;;;;0.60;0.60;;;14.70;92.90;;;;;;4936529;29;20027;-69
2021/08/30 10:22:00;;;;;;;0.55;0.55;;;14.70;93.40;;;;;;4935772;29;20848;-69
2021/08/30 10:24:28;;;;;;;0.68;0.50;;;14.80;93.40;;;;;;4936444;28;20023;-69
2021/08/30 10:27:03;;;;;;;0.50;0.50;;;14.90;93.30;;;;;;4934585;28;20039;-68
2021/08/30 10:29:34;;;;;;;0.82;0.50;;;14.80;92.90;;;;;;4935116;29;20027;-69
2021/08/30 10:32:00;;;;;;;1.10;1.00;;;14.80;93.10;;;;;;4935327;28;20091;-68
2021/08/30 10:34:29;;;;;;;0.50;0.50;;;14.90;93.70;;;;;;4935751;29;20467;-68
2021/08/30 10:36:57;;;;;;;0.52;0.52;;;15.00;93.70;;;;;;4936517;29;20055;-69
2021/08/30 10:39:24;;;;;;;0.70;0.70;;;15.10;93.60;;;;;;4932723;28;20063;-68
2021/08/30 10:41:50;;;;;;;0.60;0.60;;;15.10;92.40;;;;;;4936653;29;20509;-68
2021/08/30 10:44:21;;;;;;;0.63;0.63;;;15.10;92.40;;;;;;4936927;29;20036;-68
2021/08/30 10:46:55;;;;;;;0.90;0.60;;;15.10;92.40;;;;;;4935580;29;20024;-68
2021/08/30 10:49:32;;;;;;;0.70;0.50;;;15.10;92.70;;;;;;4935337;29;20024;-67
2021/08/30 10:52:07;;;;;;;1.73;0.80;;;15.20;93.20;;;;;;4935633;29;20555;-68
2021/08/30 10:54:33;;;;;;;2.90;0.73;;;15.20;92.10;;;;;;4936560;29;20035;-68
2021/08/30 10:57:02;;;;;;;0.95;0.75;;;15.30;92.40;;;;;;4939612;29;20152;-69
2021/08/30 10:59:28;;;;;;;;;;;15.30;92.50;;;;;;4939550;29;20079;-68
2021/08/30 11:02:04;;;;;;;0.60;0.60;;;15.40;92.40;;;;;;4933096;28;19938;-68
2021/08/30 11:04:36;;;;;;;0.60;0.60;;;15.40;92.50;;;;;;4936636;28;20461;-69
2021/08/30 11:07:03;;;;;;;0.77;0.77;;;15.50;92.30;;;;;;4936621;29;20102;-69
2021/08/30 11:09:29;;;;;;;0.90;0.60;;;15.50;92.70;;;;;;4936404;28;20425;-69
2021/08/30 11:12:05;;;;;;;1.63;0.88;;;15.50;91.10;;;;;;4936941;29;20032;-68
2021/08/30 11:14:31;;;;;;;0.98;0.70;;;15.50;91.50;;;;;;4936420;29;20032;-69
2021/08/30 11:16:57;;;;;;;0.80;0.80;;;15.60;91.70;;;;;;4937213;28;20038;-68
2021/08/30 11:19:25;;;;;;;0.75;0.75;;;15.60;90.30;;;;;;4936424;29;20051;-68
2021/08/30 11:22:00;;;;;;;1.42;0.90;;;15.70;91.00;;;;;;4936674;29;20030;-69
2021/08/30 11:24:40;;;;;;;0.70;0.70;;;15.80;90.00;;;;;;4929661;29;20083;-68
2021/08/30 11:27:08;;;;;;;1.25;0.93;;;15.80;90.40;;;;;;4935931;29;20027;-68
2021/08/30 11:29:40;;;;;;;0.85;0.85;;;15.90;91.00;;;;;;4936087;29;20036;-68
2021/08/30 11:32:06;;;;;;;0.73;0.73;;;16.00;90.90;;;;;;4934316;28;20046;-68
2021/08/30 11:34:33;;;;;;;0.70;0.70;;;16.10;90.70;;;;;;4935596;28;20086;-68
2021/08/30 11:37:01;;;;;;;0.80;0.67;;;16.20;89.60;;;;;;4935858;28;20028;-68
2021/08/30 11:39:32;;;;;;;0.83;0.70;;;16.20;91.20;;;;;;4930036;29;20358;-68
2021/08/30 11:42:01;;;;;;;0.70;0.70;;;16.20;89.30;;;;;;4936070;28;20036;-69
2021/08/30 11:44:32;;;;;;;0.70;0.70;;;16.20;89.50;;;;;;4928469;29;20088;-68
2021/08/30 11:47:00;;;;;;;0.70;0.70;;;16.20;90.70;;;;;;4936193;29;20091;-68
2021/08/30 11:49:28;;;;;;;0.75;0.73;;;16.20;90.40;;;;;;4931815;28;20032;-68
2021/08/30 11:51:58;;;;;;;0.60;0.60;;;16.20;90.10;;;;;;4933620;29;20059;-68
2021/08/30 11:54:30;;;;;;;1.58;0.85;;;16.10;90.60;;;;;;4935779;28;20040;-68
2021/08/30 11:56:59;;;;;;;0.70;0.70;;;16.20;88.40;;;;;;4934676;29;20476;-68
2021/08/30 11:59:29;;;;;;;0.68;0.68;;;16.10;87.10;;;;;;4933726;29;20054;-68
2021/08/30 12:01:54;;;;;;;1.00;0.88;;;16.00;88.00;;;;;;4930637;29;20082;-68
2021/08/30 12:04:20;;;;;;;1.67;0.65;;;16.10;88.60;;;;;;4936768;28;20063;-68
2021/08/30 12:06:47;;;;;;;1.05;0.95;;;16.20;89.30;;;;;;4934987;29;20032;-68
2021/08/30 12:09:13;;;;;;;0.82;0.80;;;16.20;90.20;;;;;;4933809;29;20135;-68
2021/08/30 12:11:54;;;;;;;0.45;0.45;;;16.30;86.90;;;;;;4934522;28;20039;-68
2021/08/30 12:14:24;;;;;;;0.90;0.90;;;16.40;86.70;;;;;;4933570;29;20374;-68
2021/08/30 12:16:59;;;;;;;1.27;0.90;;;16.40;87.40;;;;;;4933110;29;20106;-67
2021/08/30 12:19:26;;;;;;;0.63;0.63;;;16.30;86.60;;;;;;4933921;29;20035;-69
2021/08/30 12:21:52;;;;;;;0.77;0.63;;;16.30;83.70;;;;;;4933139;29;20441;-69
2021/08/30 12:24:19;;;;;;;1.35;1.25;;;16.20;83.30;;;;;;4934122;29;20051;-69
2021/08/30 12:26:51;;;;;;;0.60;0.60;;;16.10;83.90;;;;;;4932616;29;20533;-68
2021/08/30 12:29:21;;;;;;;0.80;0.80;;;16.10;83.30;;;;;;4936462;29;20039;-68
2021/08/30 12:31:54;;;;;;;0.80;0.80;;;16.00;85.20;;;;;;4931025;28;20044;-68
2021/08/30 12:34:24;;;;;;;0.80;0.80;;;16.10;87.60;;;;;;4931691;29;20028;-68
2021/08/30 12:36:51;;;;;;;2.35;0.80;;;16.10;87.50;;;;;;4962711;28;22102;-68
2021/08/30 12:39:17;;;;;;;2.00;0.77;;;15.80;88.50;;;;;;4934789;29;20047;-68
2021/08/30 12:41:42;;;;;;;2.08;0.82;;;15.00;90.60;;;;;;4964955;28;20035;-68
2021/08/30 12:44:08;;;;;;;0.73;0.70;;;14.70;92.30;;;;;;4943987;28;20036;-68
2021/08/30 12:46:33;;;;;;;0.50;0.50;;;14.50;92.80;;;;;;4935048;29;20031;-69
2021/08/30 12:49:00;;;;;;;3.55;0.73;;;14.50;93.30;;;;;;4934697;29;20087;-68
2021/08/30 12:51:26;;;;;;;0.95;0.95;;;14.40;93.20;;;;;;4935070;29;20024;-68
2021/08/30 12:53:53;;;;;;;1.63;0.80;;;14.30;93.80;;;;;;4931765;29;20040;-68
2021/08/30 12:56:20;;;;;;;0.93;0.90;;;14.30;94.50;;;;;;4935172;28;20047;-69